createdAt,value
2022-09-24T00:01:23.046Z,7.50
2022-09-24T00:03:26.811Z,7.31
2022-09-24T00:05:28.946Z,7.26
2022-09-24T00:07:31.430Z,7.36
2022-09-24T00:09:33.970Z,7.14
2022-09-24T00:11:36.384Z,7.22
2022-09-24T00:13:40.453Z,7.20
2022-09-24T00:15:47.456Z,7.28
2022-09-24T00:17:49.600Z,7.25
2022-09-24T00:19:51.750Z,7.32
2022-09-24T00:21:54.381Z,7.27
2022-09-24T00:24:00.124Z,7.06
2022-09-24T00:26:02.237Z,7.17
2022-09-24T00:28:04.715Z,7.09
2022-09-24T00:30:07.339Z,7.21
2022-09-24T00:32:09.412Z,7.23
2022-09-24T00:34:12.861Z,7.12
2022-09-24T00:36:15.188Z,7.20
2022-09-24T00:38:18.418Z,7.23
2022-09-24T00:40:20.828Z,7.22
2022-09-24T00:42:22.824Z,7.32
2022-09-24T00:44:50.328Z,7.26
2022-09-24T00:46:52.657Z,7.20
2022-09-24T00:49:00.345Z,7.24
2022-09-24T00:51:04.670Z,7.15
2022-09-24T00:53:16.895Z,7.14
2022-09-24T00:55:21.186Z,7.12
2022-09-24T00:57:23.392Z,7.06
2022-09-24T00:59:27.660Z,7.02
2022-09-24T01:01:29.951Z,6.98
2022-09-24T01:03:35.544Z,7.06
2022-09-24T01:05:39.040Z,7.05
2022-09-24T01:07:41.019Z,7.07
2022-09-24T01:09:43.344Z,7.11
2022-09-24T01:12:26.617Z,7.10
2022-09-24T01:14:50.416Z,7.08
2022-09-24T01:17:11.480Z,7.03
2022-09-24T01:19:40.135Z,7.02
2022-09-24T01:21:49.923Z,6.98
2022-09-24T01:24:09.237Z,6.97
2022-09-24T01:27:15.982Z,7.00
2022-09-24T01:29:46.367Z,7.07
2022-09-24T01:31:59.027Z,7.03
2022-09-24T01:34:05.324Z,7.02
2022-09-24T01:36:09.665Z,7.13
2022-09-24T01:38:21.761Z,7.14
2022-09-24T01:40:27.802Z,7.10
2022-09-24T01:42:32.101Z,7.12
2022-09-24T01:44:35.760Z,7.16
2022-09-24T01:46:39.862Z,7.20
2022-09-24T01:48:42.242Z,7.27
2022-09-24T01:50:57.779Z,7.23
2022-09-24T01:53:16.990Z,7.38
2022-09-24T01:55:24.509Z,7.45
2022-09-24T01:57:39.179Z,7.43
2022-09-24T02:00:03.520Z,7.54
2022-09-24T02:02:34.216Z,7.51
2022-09-24T02:04:43.299Z,7.60
2022-09-24T02:07:12.284Z,7.54
2022-09-24T02:09:39.993Z,7.56
2022-09-24T02:11:42.289Z,7.52
2022-09-24T02:14:13.571Z,7.50
2022-09-24T02:16:20.293Z,7.55
2022-09-24T02:18:30.751Z,7.44
2022-09-24T02:20:38.181Z,7.28
2022-09-24T02:22:43.182Z,7.22
2022-09-24T02:24:50.169Z,7.07
2022-09-24T02:26:52.730Z,7.10
2022-09-24T02:28:55.017Z,7.08
2022-09-24T02:31:07.787Z,7.10
2022-09-24T02:33:13.041Z,6.99
2022-09-24T02:35:15.707Z,7.00
2022-09-24T02:37:18.144Z,7.13
2022-09-24T02:39:21.103Z,7.24
2022-09-24T02:41:25.098Z,7.30
2022-09-24T02:43:27.075Z,7.37
2022-09-24T02:45:29.037Z,7.43
2022-09-24T02:47:31.180Z,7.53
2022-09-24T02:49:33.383Z,7.54
2022-09-24T02:51:35.328Z,7.56
2022-09-24T02:53:37.509Z,7.49
2022-09-24T02:55:39.519Z,7.42
2022-09-24T02:57:41.457Z,7.48
2022-09-24T02:59:46.164Z,7.43
2022-09-24T03:01:48.863Z,7.51
2022-09-24T03:03:51.773Z,7.71
2022-09-24T03:05:54.149Z,7.69
2022-09-24T03:07:56.193Z,7.62
2022-09-24T03:09:58.238Z,7.62
2022-09-24T03:12:00.737Z,7.44
2022-09-24T03:14:02.763Z,7.30
2022-09-24T03:16:06.902Z,7.42
2022-09-24T03:18:09.161Z,7.44
2022-09-24T03:20:11.125Z,7.40
2022-09-24T03:22:13.066Z,7.32
2022-09-24T03:24:15.220Z,7.46
2022-09-24T03:26:17.845Z,7.47
2022-09-24T03:28:20.165Z,7.47
2022-09-24T03:30:22.457Z,7.50
2022-09-24T03:32:24.444Z,7.48
2022-09-24T03:34:26.478Z,7.50
2022-09-24T03:36:28.776Z,7.41
2022-09-24T03:38:31.189Z,7.56
2022-09-24T03:40:33.316Z,7.54
2022-09-24T03:42:35.873Z,7.65
2022-09-24T03:44:37.978Z,7.57
2022-09-24T03:46:40.044Z,7.59
2022-09-24T03:48:42.786Z,7.47
2022-09-24T03:50:46.323Z,7.44
2022-09-24T03:52:48.326Z,7.40
2022-09-24T03:54:50.841Z,7.45
2022-09-24T03:56:53.063Z,7.51
2022-09-24T03:58:55.109Z,7.49
2022-09-24T04:00:57.460Z,7.40
2022-09-24T04:02:59.413Z,7.51
2022-09-24T04:05:01.558Z,7.49
2022-09-24T04:07:04.766Z,7.50
2022-09-24T04:09:06.835Z,7.51
2022-09-24T04:11:08.772Z,7.55
2022-09-24T04:13:11.213Z,7.51
2022-09-24T04:15:13.239Z,7.49
2022-09-24T04:17:15.281Z,7.42
2022-09-24T04:19:17.690Z,7.36
2022-09-24T04:21:19.700Z,7.43
2022-09-24T04:23:21.709Z,7.42
2022-09-24T04:25:25.390Z,7.40
2022-09-24T04:27:27.480Z,7.29
2022-09-24T04:29:29.513Z,7.25
2022-09-24T04:31:33.389Z,7.32
2022-09-24T04:33:35.549Z,7.29
2022-09-24T04:35:37.753Z,7.32
2022-09-24T04:37:40.061Z,7.30
2022-09-24T04:39:42.082Z,7.30
2022-09-24T04:41:44.108Z,7.38
2022-09-24T04:43:46.382Z,7.37
2022-09-24T04:45:48.440Z,7.31
2022-09-24T04:47:52.040Z,7.33
2022-09-24T04:49:54.377Z,7.28
2022-09-24T04:51:56.397Z,7.37
2022-09-24T04:53:58.430Z,7.29
2022-09-24T04:56:00.996Z,7.36
2022-09-24T04:58:03.407Z,7.44
2022-09-24T05:00:13.132Z,7.49
2022-09-24T05:02:15.993Z,7.47
2022-09-24T05:04:18.042Z,7.47
2022-09-24T05:06:20.078Z,7.55
2022-09-24T05:08:23.167Z,7.46
2022-09-24T05:10:26.813Z,7.60
2022-09-24T05:12:28.894Z,7.53
2022-09-24T05:14:31.648Z,7.62
2022-09-24T05:16:33.718Z,7.64
2022-09-24T05:18:35.653Z,7.76
2022-09-24T05:20:38.193Z,7.67
2022-09-24T05:22:50.410Z,7.75
2022-09-24T05:24:52.558Z,7.68
2022-09-24T05:26:54.999Z,7.71
2022-09-24T05:28:57.115Z,7.71
2022-09-24T05:31:00.120Z,7.81
2022-09-24T05:33:02.654Z,7.80
2022-09-24T05:35:05.318Z,7.84
2022-09-24T05:37:07.381Z,7.87
2022-09-24T05:39:11.710Z,7.91
2022-09-24T05:41:13.871Z,7.86
2022-09-24T05:43:17.011Z,7.95
2022-09-24T05:45:19.369Z,7.92
2022-09-24T05:47:21.367Z,8.05
2022-09-24T05:49:24.328Z,8.00
2022-09-24T05:51:26.827Z,8.15
2022-09-24T05:53:28.942Z,8.12
2022-09-24T05:55:32.521Z,8.20
2022-09-24T05:57:35.238Z,8.14
2022-09-24T05:59:37.176Z,8.21
2022-09-24T06:01:39.869Z,8.08
2022-09-24T06:03:42.361Z,8.17
2022-09-24T06:05:47.970Z,8.25
2022-09-24T06:07:51.428Z,8.23
2022-09-24T06:09:53.823Z,8.26
2022-09-24T06:11:55.883Z,8.40
2022-09-24T06:13:58.004Z,8.34
2022-09-24T06:16:06.507Z,8.40
2022-09-24T06:18:10.436Z,8.52
2022-09-24T06:20:13.240Z,8.65
2022-09-24T06:22:15.788Z,8.62
2022-09-24T06:24:17.940Z,8.79
2022-09-24T06:26:19.892Z,8.88
2022-09-24T06:28:22.279Z,8.88
2022-09-24T06:30:24.240Z,8.99
2022-09-24T06:32:26.351Z,8.98
2022-09-24T06:34:29.061Z,9.14
2022-09-24T06:36:31.132Z,9.15
2022-09-24T06:38:33.197Z,9.20
2022-09-24T06:40:37.445Z,9.24
2022-09-24T06:42:39.892Z,9.22
2022-09-24T06:44:42.014Z,9.22
2022-09-24T06:46:44.579Z,9.26
2022-09-24T06:48:49.573Z,9.34
2022-09-24T06:50:51.884Z,9.37
2022-09-24T06:52:57.239Z,9.31
2022-09-24T06:54:59.455Z,9.43
2022-09-24T06:57:01.819Z,9.57
2022-09-24T06:59:04.561Z,9.58
